Latest Coastal Weather Observations for Strahan

IDT60701

Issued at 1:52 pm EDT Tuesday 17 January 2017 (issued every 10 minutes, with the page automatically refreshed every 10 minutes)

About coastal observations | Map of coastal stations | Coastal observations for TAS | Marine services | Other Formats
Station Details ID: 097072 Name: STRAHAN AERODROME Lat: -42.16 Lon: 145.29 Height: 21.0 m
Data from the previous 72 hours. | See also: Recent months at Strahan
Date/Time
EDT
Temp
°C
Wind Pressure Rain since
9am
mm
Weather Cloud Vis
km
Sea
Height
m
Swell
Dir  Spd
kts
Gust
kts
hPa Trend Height
m
Period
s
Dir
17/01:30pm 19.3 NW 13 16 1005.9 - 0.0 - Partly cloudy 10 - - - -
17/01:00pm 18.5 NW 12 16 1006.1 - 0.0 - Partly cloudy 10 - - - -
17/12:30pm 19.3 NW 13 17 1006.1 - 0.0 - Partly cloudy 10 - - - -
17/12:00pm 19.0 NW 13 15 1006.2 - 0.0 - - 10 - - - -
17/11:30am 19.2 NW 13 16 1006.2 - 0.0 - - 10 - - - -
17/11:00am 18.8 NW 13 17 1006.6 - 0.0 - - 10 - - - -
17/10:30am 18.8 NW 11 17 1006.6 - 0.0 - - 10 - - - -
17/10:00am 18.0 NW 8 11 1006.7 - 0.0 - Partly cloudy 10 - - - -
17/09:30am 17.9 NNW 8 13 1007.0 - 0.0 - - 10 - - - -
17/09:00am 16.7 NNE 6 10 1007.0 - 1.0 - Mostly cloudy 10 - - - -
17/08:30am 15.6 NNE 6 9 1007.1 - 1.0 - Partly cloudy 10 - - - -
17/08:00am 14.5 NNE 7 10 1006.9 - 1.0 - Partly cloudy 10 - - - -
17/07:30am 13.6 NNE 5 7 1007.2 - 1.0 - Partly cloudy 10 - - - -
17/07:00am 13.2 NNE 7 9 1007.3 - 1.0 - Cloudy 10 - - - -
17/06:30am 13.8 N 6 7 1007.3 - 1.0 - Cloudy 10 - - - -
17/06:00am 14.1 N 7 9 1007.2 - 1.0 - Mostly cloudy 10 - - - -
17/05:30am 13.8 NNW 8 12 1007.0 - 1.0 - Partly cloudy 10 - - - -
17/05:00am 13.2 NW 8 10 1006.8 - 1.0 - Partly cloudy 10 - - - -
17/04:30am 13.2 NW 10 13 1006.7 - 1.0 - Partly cloudy 10 - - - -
17/04:00am 9.9 W 2 5 1006.1 - 1.0 - - 10 - - - -
17/03:30am 10.5 NE 4 5 1006.1 - 1.0 - - 10 - - - -
17/03:00am 10.3 NNW 3 4 1005.9 - 1.0 - - 10 - - - -
17/02:30am 11.3 NNE 7 9 1005.7 - 1.0 - - 10 - - - -
17/02:00am 11.5 NNE 7 9 1006.4 - 1.0 - - 10 - - - -
17/01:30am 12.0 NNE 7 9 1007.1 - 1.0 - Partly cloudy 10 - - - -
17/01:00am 12.4 NNE 6 8 1007.8 - 1.0 - Partly cloudy 10 - - - -
17/12:30am 12.9 NNE 6 8 1008.2 - 1.0 - Partly cloudy 10 - - - -
17/12:00am 13.5 NNE 6 8 1008.8 - 1.0 - Mostly cloudy 10 - - - -
 
Date/Time
EDT
Temp
°C
Wind Pressure Rain since
9am
mm
Weather Cloud Vis
km
Sea
Height
m
Swell
Dir  Spd
kts
Gust
kts
hPa Trend Height
m
Period
s
Dir
16/11:30pm 13.6 N 6 7 1009.3 - 1.0 - Partly cloudy 10 - - - -
16/11:00pm 14.2 NNW 8 11 1009.5 - 1.0 - Partly cloudy 10 - - - -
16/10:30pm 14.9 NW 9 12 1010.1 - 1.0 - Partly cloudy 10 - - - -
16/10:00pm 14.7 NW 8 12 1010.1 - 1.0 - Cloudy 10 - - - -
16/09:30pm 14.9 NW 11 14 1010.2 - 1.0 - Partly cloudy 10 - - - -
16/09:00pm 15.0 WNW 11 14 1010.2 - 1.0 - Cloudy 10 - - - -
16/08:30pm 14.8 WNW 14 17 1010.0 - 1.0 - - 10 - - - -
16/08:00pm 14.9 NW 14 20 1009.8 - 1.0 - - 10 - - - -
16/07:30pm 16.4 NW 12 17 1009.6 - 1.0 - - 10 - - - -
16/07:00pm 16.4 NW 14 18 1009.6 - 1.0 - - 10 - - - -
16/06:30pm 16.2 NW 12 16 1009.9 - 1.0 - Partly cloudy 10 - - - -
16/06:00pm 16.4 NW 11 15 1010.2 - 1.0 - Cloudy 10 - - - -
16/05:30pm 16.0 NW 13 18 1010.5 - 1.0 - Cloudy 10 - - - -
16/05:00pm 18.3 NW 13 16 1010.8 - 1.0 - Partly cloudy 10 - - - -
16/04:30pm 17.2 NW 13 17 1011.1 - 1.0 - Partly cloudy 10 - - - -
16/04:00pm 18.1 WNW 12 16 1011.5 - 1.0 - Partly cloudy 10 - - - -
16/03:30pm 17.1 NW 15 19 1011.8 - 1.0 - Partly cloudy 10 - - - -
16/03:00pm 17.1 NW 13 18 1012.0 - 1.0 - Mostly cloudy 10 - - - -
16/02:46pm 15.8 NW 12 17 1012.3 - 1.0 - Partly cloudy 10 - - - -
16/02:44pm 15.6 NW 12 16 1012.3 - 1.0 - Partly cloudy 10 - - - -
16/02:30pm 15.2 NW 13 18 1012.5 - 1.0 - Partly cloudy 2 - - - -
16/02:22pm 14.7 NW 16 19 1012.6 - 1.0 - Partly cloudy 2 - - - -
16/02:15pm 14.7 WNW 16 20 1012.7 - 1.0 - Partly cloudy 5 - - - -
16/02:00pm 17.4 WNW 13 17 1012.4 - 1.0 - Partly cloudy 10 - - - -
16/01:30pm 17.0 NW 15 20 1012.8 - 0.8 - Partly cloudy 10 - - - -
16/01:00pm 17.2 NW 14 19 1013.0 - 0.8 - Partly cloudy 10 - - - -
16/12:49pm 15.9 NW 16 20 1013.1 - 0.8 - Partly cloudy 10 - - - -
16/12:33pm 15.2 NW 16 24 1013.3 - 0.8 - Partly cloudy 5 - - - -
16/12:30pm 15.4 NW 15 24 1013.3 - 0.8 - Partly cloudy 10 - - - -
16/12:00pm 16.0 NW 13 18 1013.3 - 0.8 - Cloudy 10 - - - -
16/11:30am 16.4 NW 15 20 1013.5 - 0.8 - Partly cloudy 10 - - - -
16/11:00am 15.5 NW 13 18 1013.6 - 0.8 - Partly cloudy 10 - - - -
16/10:30am 14.0 NNW 12 19 1013.9 - 0.8 - Partly cloudy 6 - - - -
16/10:11am 13.8 NNW 11 16 1014.1 - 0.8 - Partly cloudy 10 - - - -
16/10:09am 13.8 NW 11 16 1014.2 - 0.8 - Partly cloudy 10 - - - -
16/10:00am 13.3 NW 13 17 1014.1 - 0.8 - Partly cloudy 5 - - - -
16/09:48am 13.4 NW 13 20 1014.2 - 0.2 - Partly cloudy 5 - - - -
16/09:32am 14.8 NNW 11 15 1014.1 - 0.0 - Partly cloudy 10 - - - -
16/09:30am 14.6 NNW 11 15 1014.1 - 0.0 - Partly cloudy 10 - - - -
16/09:00am 14.1 NNW 14 17 1013.9 - 1.8 - Partly cloudy 10 - - - -
16/08:30am 14.0 NNW 13 15 1013.7 - 1.8 - Cloudy 10 - - - -
16/08:00am 13.1 N 5 11 1013.5 - 1.8 - Partly cloudy 10 - - - -
16/07:30am 12.9 WNW 5 7 1013.4 - 1.8 - Cloudy 10 - - - -
16/07:00am 12.7 W 9 14 1013.3 - 1.8 - Partly cloudy 10 - - - -
16/06:30am 12.4 WNW 11 14 1013.2 - 1.8 - Cloudy 10 - - - -
16/06:00am 11.9 NNW 5 7 1013.2 - 1.8 - Cloudy 10 - - - -
16/05:39am 11.8 NW 5 6 1013.1 - 1.8 - Partly cloudy 10 - - - -
16/05:30am 11.8 WNW 7 10 1013.1 - 1.8 - Partly cloudy 6 - - - -
16/05:16am 12.0 WNW 9 15 1013.0 - 1.8 - Partly cloudy 5 - - - -
16/05:00am 12.0 N 5 6 1012.9 - 1.8 - Partly cloudy 10 - - - -
16/04:30am 12.0 NNW 5 7 1012.9 - 1.8 - Partly cloudy 10 - - - -
16/04:11am 12.0 NW 5 7 1012.9 - 1.8 - Partly cloudy 10 - - - -
16/04:00am 11.8 WNW 7 9 1012.8 - 1.8 - Partly cloudy 5 - - - -
16/03:40am 12.1 WNW 9 13 1012.9 - 1.6 - Partly cloudy 5 - - - -
16/03:30am 11.9 NNW 7 9 1012.9 - 1.6 - Partly cloudy 6 - - - -
16/03:26am 11.9 N 7 9 1012.9 - 1.6 - Partly cloudy 5 - - - -
16/03:23am 11.9 N 7 9 1012.9 - 1.6 - Partly cloudy 5 - - - -
16/03:00am 12.2 N 6 7 1013.0 - 1.4 - Cloudy 10 - - - -
16/02:30am 12.4 NNW 5 7 1013.3 - 1.4 - Cloudy 10 - - - -
16/02:00am 12.6 NW 9 12 1013.5 - 1.4 - Partly cloudy 10 - - - -
16/01:30am 12.3 NNW 5 10 1013.9 - 1.4 - Partly cloudy 10 - - - -
16/01:00am 12.0 NW 7 9 1014.2 - 1.4 - Partly cloudy 10 - - - -
16/12:58am 12.0 NW 6 9 1014.2 - 1.4 - Partly cloudy 10 - - - -
16/12:33am 12.5 NW 10 14 1014.6 - 0.6 - Partly cloudy 5 - - - -
16/12:30am 12.5 NW 11 15 1014.6 - 0.6 - Partly cloudy 8 - - - -
16/12:15am 12.9 NW 12 19 1014.7 - 0.2 - Partly cloudy 5 - - - -
16/12:00am 13.4 NW 8 10 1014.7 - 0.2 - Cloudy 10 - - - -
 
Date/Time
EDT
Temp
°C
Wind Pressure Rain since
9am
mm
Weather Cloud Vis
km
Sea
Height
m
Swell
Dir  Spd
kts
Gust
kts
hPa Trend Height
m
Period
s
Dir
15/11:30pm 13.4 NNW 8 11 1014.8 - 0.2 - Cloudy 10 - - - -
15/11:00pm 13.2 NW 8 10 1014.9 - 0.2 - Cloudy 10 - - - -
15/10:30pm 13.0 WNW 8 10 1015.3 - 0.2 - Partly cloudy 10 - - - -
15/10:00pm 12.7 WNW 12 17 1015.3 - 0.2 - Partly cloudy 10 - - - -
15/09:30pm 13.2 WNW 10 14 1015.2 - 0.2 - Partly cloudy 10 - - - -
15/09:00pm 13.0 WNW 9 12 1015.4 - 0.0 - Cloudy 10 - - - -
15/08:32pm 12.9 WNW 10 19 1015.4 - 0.0 - Partly cloudy 10 - - - -
15/08:30pm 13.0 WNW 9 16 1015.4 - 0.0 - Partly cloudy 10 - - - -
15/08:19pm 13.0 WNW 13 19 1015.4 - 0.0 - Partly cloudy 5 - - - -
15/08:00pm 13.8 WNW 9 12 1015.3 - 0.0 - Partly cloudy 10 - - - -
15/07:30pm 14.1 WNW 11 15 1015.2 - 0.0 - Partly cloudy 10 - - - -
15/07:00pm 14.6 WNW 12 15 1015.2 - 0.0 - Partly cloudy 10 - - - -
15/06:30pm 16.1 WNW 13 18 1015.2 - 0.0 - Partly cloudy 10 - - - -
15/06:00pm 15.4 NW 12 15 1015.3 - 0.0 - Cloudy 10 - - - -
15/05:30pm 14.3 NW 11 15 1015.6 - 0.0 - Partly cloudy 10 - - - -
15/05:00pm 15.3 WNW 11 17 1015.8 - 0.0 - Partly cloudy 10 - - - -
15/04:30pm 15.4 WNW 12 15 1016.2 - 0.0 - Partly cloudy 10 - - - -
15/04:00pm 15.9 NW 12 15 1016.5 - 0.0 - Partly cloudy 10 - - - -
15/03:30pm 15.6 NW 8 13 1016.5 - 0.0 - Partly cloudy 10 - - - -
15/03:17pm 13.6 NW 11 15 1016.5 - 0.0 - Partly cloudy 7 - - - -
15/03:00pm 13.4 WNW 13 17 1016.6 - 0.0 - Cloudy 5 - - - -
15/02:30pm 15.6 WNW 10 14 1016.5 - 0.0 - Partly cloudy 10 - - - -
15/02:00pm 15.1 W 11 18 1016.6 - 0.0 - Partly cloudy 10 - - - -
15/01:30pm 14.6 WNW 13 16 1016.5 - 0.0 - Cloudy 10 - - - -
15/01:00pm 15.2 W 12 17 1016.4 - 0.0 - Partly cloudy 10 - - - -
15/12:30pm 15.8 WNW 11 16 1016.5 - 0.0 - Cloudy 10 - - - -
15/12:00pm 15.7 WNW 11 16 1016.4 - 0.0 - Cloudy 10 - - - -
15/11:30am 14.2 W 12 16 1016.4 - 0.0 - Partly cloudy 10 - - - -
15/11:00am 13.9 WSW 12 17 1016.4 - 0.0 - Partly cloudy 10 - - - -
15/10:30am 13.5 W 10 14 1016.1 - 0.0 - Partly cloudy 10 - - - -
15/10:00am 14.5 W 9 13 1015.9 - 0.0 - Cloudy 10 - - - -
15/09:30am 14.0 W 10 12 1015.6 - 0.0 - Cloudy 10 - - - -
15/09:00am 13.9 W 11 15 1015.4 - 0.6 - Mostly cloudy 10 - - - -
15/08:30am 12.8 W 10 14 1015.1 - 0.6 - Partly cloudy 10 - - - -
15/08:00am 13.0 WSW 9 11 1014.9 - 0.6 - Cloudy 10 - - - -
15/07:30am 12.7 W 9 12 1014.6 - 0.6 - Cloudy 10 - - - -
15/07:00am 12.5 WSW 9 13 1014.3 - 0.6 - Cloudy 10 - - - -
15/06:30am 12.5 WSW 11 16 1014.2 - 0.6 - Partly cloudy 10 - - - -
15/06:00am 12.5 WSW 12 18 1013.8 - 0.6 - Cloudy 10 - - - -
15/05:30am 12.3 WSW 10 14 1013.6 - 0.6 - Cloudy 10 - - - -
15/05:00am 12.4 WSW 11 14 1013.2 - 0.6 - Partly cloudy 10 - - - -
15/04:30am 12.2 WSW 8 11 1012.7 - 0.6 - Partly cloudy 9 - - - -
15/04:00am 12.5 WSW 10 14 1012.7 - 0.6 - Cloudy 10 - - - -
15/03:30am 12.3 WSW 13 20 1012.8 - 0.6 - Partly cloudy 10 - - - -
15/03:00am 11.8 WSW 10 13 1012.7 - 0.6 - Partly cloudy 10 - - - -
15/02:30am 12.1 WSW 10 16 1012.8 - 0.6 - Partly cloudy 10 - - - -
15/02:00am 11.7 WSW 10 13 1012.8 - 0.6 - Partly cloudy 9 - - - -
15/01:30am 12.5 SW 10 14 1012.8 - 0.6 - Partly cloudy 10 - - - -
15/01:00am 12.5 WSW 10 13 1012.8 - 0.6 - Partly cloudy 10 - - - -
15/12:30am 12.7 WSW 14 20 1012.9 - 0.6 - Partly cloudy 10 - - - -
15/12:00am 12.4 WSW 11 16 1012.9 - 0.6 - Cloudy 8 - - - -
 
Date/Time
EDT
Temp
°C
Wind Pressure Rain since
9am
mm
Weather Cloud Vis
km
Sea
Height
m
Swell
Dir  Spd
kts
Gust
kts
hPa Trend Height
m
Period
s
Dir
14/11:30pm 12.4 WSW 11 17 1012.6 - 0.6 - Partly cloudy 9 - - - -
14/11:00pm 12.5 WSW 12 18 1012.5 - 0.6 - Partly cloudy 10 - - - -
14/10:30pm 12.6 WSW 13 18 1012.4 - 0.6 - Partly cloudy 8 - - - -
14/10:00pm 12.5 WSW 13 21 1012.0 - 0.6 - Partly cloudy 10 - - - -
14/09:50pm 12.7 W 15 24 1012.0 - 0.6 - Partly cloudy 9 - - - -
14/09:30pm 12.3 WSW 8 13 1011.5 - 0.6 - Partly cloudy 10 - - - -
14/09:00pm 12.3 WSW 14 18 1011.2 - 0.6 - Mostly clear 10 - - - -
14/08:30pm 12.8 WSW 17 22 1010.7 - 0.6 - Partly cloudy 10 - - - -
14/08:00pm 12.9 WSW 16 20 1010.3 - 0.6 - Partly cloudy 9 - - - -
14/07:30pm 13.3 WSW 14 19 1009.6 - 0.6 - Partly cloudy 9 - - - -
14/07:06pm 12.3 SW 16 26 1009.3 - 0.6 - Partly cloudy 10 - - - -
14/07:00pm 12.4 SW 18 26 1009.3 - 0.6 - Partly cloudy 9 - - - -
14/06:30pm 13.7 WSW 13 19 1008.5 - 0.6 - Partly cloudy 9 - - - -
14/06:00pm 12.4 WSW 12 17 1008.0 - 0.6 - Cloudy 9 - - - -
14/05:55pm 11.8 WSW 15 25 1007.9 - 0.6 - Partly cloudy 6 - - - -
14/05:30pm 13.9 WSW 16 21 1007.5 - 0.6 - Partly cloudy 9 - - - -
14/05:00pm 14.5 WSW 17 24 1006.9 - 0.6 - Partly cloudy 9 - - - -
14/04:30pm 14.4 WSW 15 21 1006.4 - 0.6 - Partly cloudy 10 - - - -
14/04:00pm 14.1 SW 15 23 1005.7 - 0.6 - Partly cloudy 10 - - - -
14/03:44pm 13.9 SW 17 27 1005.2 - 0.6 - Partly cloudy 10 - - - -
14/03:30pm 15.4 WSW 17 23 1004.9 - 0.6 - Partly cloudy 10 - - - -
14/03:02pm 14.7 WSW 18 28 1004.2 - 0.6 - Partly cloudy 10 - - - -
14/03:00pm 14.7 WSW 19 28 1004.2 - 0.6 Recent precip. Cloudy 10 - - - -
14/02:30pm 15.2 WSW 21 28 1003.4 - 0.6 - Partly cloudy 10 - - - -
14/02:24pm 14.9 WSW 21 28 1003.3 - 0.6 - Partly cloudy 10 - - - -
14/02:04pm 13.7 WSW 21 32 1003.0 - 0.4 - Partly cloudy 5 - - - -
14/02:03pm 14.1 WSW 20 32 1003.0 - 0.4 - Partly cloudy 6 - - - -
14/02:00pm 15.1 WSW 19 26 1002.8 - 0.4 - Partly cloudy 10 - - - -

Other Formats:

Comma delimited format used in spreadsheet applications
http://www.bom.gov.au/fwo/IDT60701/IDT60701.94956.axf

JavaScript Object Notation format (JSON) in row-major order
http://www.bom.gov.au/fwo/IDT60701/IDT60701.94956.json